createdAt,value
2022-08-28T00:07:47.662Z,2.17
2022-08-28T00:17:49.309Z,2.20
2022-08-28T00:27:50.578Z,2.22
2022-08-28T00:37:52.063Z,2.45
2022-08-28T00:47:53.861Z,2.65
2022-08-28T00:57:55.158Z,2.65
2022-08-28T01:07:56.428Z,2.70
2022-08-28T01:17:57.680Z,2.78
2022-08-28T01:27:58.960Z,2.67
2022-08-28T01:38:00.287Z,2.55
2022-08-28T01:48:01.535Z,2.80
2022-08-28T01:58:02.824Z,2.85
2022-08-28T02:08:04.105Z,2.70
2022-08-28T02:18:05.436Z,2.90
2022-08-28T02:28:06.755Z,2.85
2022-08-28T02:38:08.208Z,2.50
2022-08-28T02:48:15.938Z,2.85
2022-08-28T02:58:18.716Z,2.50
2022-08-28T03:08:20.002Z,2.80
2022-08-28T03:18:28.449Z,2.33
2022-08-28T03:28:29.704Z,2.80
2022-08-28T03:38:30.985Z,2.42
2022-08-28T03:48:32.299Z,2.50
2022-08-28T03:58:34.026Z,2.50
2022-08-28T04:08:35.329Z,2.50
2022-08-28T04:18:36.589Z,2.50
2022-08-28T04:28:37.837Z,2.53
2022-08-28T04:38:43.092Z,2.50
2022-08-28T04:48:45.322Z,2.55
2022-08-28T04:58:46.625Z,2.30
2022-08-28T05:08:47.920Z,2.50
2022-08-28T05:18:49.184Z,2.10
2022-08-28T05:28:50.424Z,2.15
2022-08-28T05:38:54.530Z,2.30
2022-08-28T05:48:55.908Z,2.05
2022-08-28T05:58:57.195Z,2.40
2022-08-28T06:08:59.240Z,2.50
2022-08-28T06:19:00.916Z,2.35
2022-08-28T06:29:02.407Z,2.05
2022-08-28T06:39:03.654Z,2.17
2022-08-28T06:49:04.948Z,2.20
2022-08-28T06:59:06.225Z,2.33
2022-08-28T07:09:07.578Z,2.40
2022-08-28T07:19:09.989Z,2.20
2022-08-28T07:29:12.099Z,1.98
2022-08-28T07:39:13.489Z,2.15
2022-08-28T07:49:14.896Z,2.40
2022-08-28T07:59:16.901Z,2.10
2022-08-28T08:09:18.551Z,1.83
2022-08-28T08:19:19.900Z,2.05
2022-08-28T08:29:21.298Z,1.95
2022-08-28T08:39:22.770Z,2.00
2022-08-28T08:49:24.182Z,1.88
2022-08-28T08:59:25.572Z,1.80
2022-08-28T09:09:26.850Z,1.95
2022-08-28T09:19:28.204Z,1.55
2022-08-28T09:29:29.518Z,1.77
2022-08-28T09:39:30.816Z,1.52
2022-08-28T09:49:34.016Z,1.48
2022-08-28T09:59:35.430Z,1.88
2022-08-28T10:09:36.827Z,1.50
2022-08-28T10:19:38.103Z,1.50
2022-08-28T10:29:39.481Z,1.67
2022-08-28T10:39:40.863Z,1.48
2022-08-28T10:49:42.216Z,1.80
2022-08-28T10:59:43.600Z,2.10
2022-08-28T11:09:45.017Z,2.30
2022-08-28T11:19:51.681Z,2.03
2022-08-28T11:29:53.731Z,1.90
2022-08-28T11:39:55.015Z,1.70
2022-08-28T11:49:56.436Z,1.80
2022-08-28T11:59:57.770Z,1.77
2022-08-28T12:10:04.288Z,1.63
2022-08-28T12:20:06.483Z,1.58
2022-08-28T12:30:07.899Z,1.50
2022-08-28T12:40:09.263Z,1.40
2022-08-28T12:50:10.654Z,1.30
2022-08-28T13:00:11.926Z,1.17
2022-08-28T13:10:13.304Z,1.50
2022-08-28T13:20:14.597Z,1.20
2022-08-28T13:30:15.976Z,1.40
2022-08-28T13:40:45.872Z,1.38
2022-08-28T13:50:38.637Z,1.25
2022-08-28T14:00:40.081Z,1.20
2022-08-28T14:10:41.500Z,1.35
2022-08-28T14:20:42.799Z,1.05
2022-08-28T14:30:44.106Z,1.40
2022-08-28T14:40:45.567Z,1.70
2022-08-28T14:50:46.943Z,1.60
2022-08-28T15:00:48.447Z,1.52
2022-08-28T15:10:50.128Z,1.40
2022-08-28T15:20:51.395Z,1.23
2022-08-28T15:30:52.842Z,1.50
2022-08-28T15:40:54.281Z,1.65
2022-08-28T15:50:55.657Z,1.55
2022-08-28T16:00:56.988Z,1.63
2022-08-28T16:10:59.001Z,1.65
2022-08-28T16:21:04.584Z,1.23
2022-08-28T16:31:07.821Z,1.20
2022-08-28T16:41:20.713Z,1.73
2022-08-28T16:51:22.769Z,1.45
2022-08-28T17:01:24.653Z,1.38
2022-08-28T17:11:26.088Z,1.38
2022-08-28T17:21:28.364Z,1.52
2022-08-28T17:31:29.701Z,1.58
2022-08-28T17:41:31.006Z,1.30
2022-08-28T17:51:41.831Z,1.40
2022-08-28T18:01:44.535Z,1.58
2022-08-28T18:11:45.991Z,1.50
2022-08-28T18:21:47.461Z,1.50
2022-08-28T18:31:48.828Z,1.33
2022-08-28T18:41:50.156Z,1.40
2022-08-28T18:51:51.445Z,1.48
2022-08-28T19:01:52.954Z,1.50
2022-08-28T19:11:54.404Z,1.80
2022-08-28T19:21:55.777Z,1.67
2022-08-28T19:31:57.220Z,1.42
2022-08-28T19:41:58.590Z,1.60
2022-08-28T19:52:00.061Z,1.50
2022-08-28T20:02:01.493Z,1.50
2022-08-28T20:12:03.882Z,1.50
2022-08-28T20:22:05.236Z,1.55
2022-08-28T20:32:06.610Z,1.33
2022-08-28T20:42:07.886Z,1.52
2022-08-28T20:52:09.184Z,1.38
2022-08-28T21:02:10.473Z,1.33
2022-08-28T21:12:11.853Z,1.60
2022-08-28T21:22:13.268Z,1.60
2022-08-28T21:32:16.810Z,1.73
2022-08-28T21:42:19.396Z,1.40
2022-08-28T21:52:20.678Z,1.35
2022-08-28T22:02:22.040Z,1.50
2022-08-28T22:12:23.404Z,1.63
2022-08-28T22:22:24.675Z,1.73
2022-08-28T22:32:25.924Z,1.55
2022-08-28T22:42:27.206Z,1.40
2022-08-28T22:52:28.460Z,1.50
2022-08-28T23:02:29.712Z,1.70
2022-08-28T23:12:31.015Z,1.27
2022-08-28T23:22:32.287Z,1.67
2022-08-28T23:32:33.765Z,1.40
2022-08-28T23:42:35.530Z,1.30
2022-08-28T23:52:36.918Z,1.70
